createdAt,value
2018-12-13T00:02:17.788Z,4.30
2018-12-13T00:04:45.272Z,4.30
2018-12-13T00:07:12.739Z,4.30
2018-12-13T00:09:40.196Z,4.30
2018-12-13T00:12:07.656Z,4.20
2018-12-13T00:14:35.143Z,4.20
2018-12-13T00:17:02.614Z,4.20
2018-12-13T00:19:30.067Z,4.20
2018-12-13T00:21:57.512Z,4.10
2018-12-13T00:24:24.974Z,4.10
2018-12-13T00:26:52.431Z,4.10
2018-12-13T00:29:19.966Z,4.00
2018-12-13T00:31:47.423Z,4.00
2018-12-13T00:34:14.881Z,4.00
2018-12-13T00:36:42.374Z,4.00
2018-12-13T00:39:09.835Z,3.90
2018-12-13T00:41:37.304Z,3.90
2018-12-13T00:44:04.761Z,3.80
2018-12-13T00:46:32.206Z,3.80
2018-12-13T00:48:59.675Z,3.80
2018-12-13T00:51:27.104Z,3.80
2018-12-13T00:53:54.568Z,3.80
2018-12-13T00:56:22.015Z,3.80
2018-12-13T00:58:49.484Z,3.80
2018-12-13T01:01:16.923Z,3.80
2018-12-13T01:03:44.421Z,3.70
2018-12-13T01:06:11.872Z,3.70
2018-12-13T01:08:39.344Z,3.70
2018-12-13T01:11:06.916Z,3.70
2018-12-13T01:13:34.367Z,3.60
2018-12-13T01:16:01.836Z,3.60
2018-12-13T01:18:29.334Z,3.60
2018-12-13T01:20:56.872Z,3.60
2018-12-13T01:23:24.398Z,3.60
2018-12-13T01:25:51.890Z,3.50
2018-12-13T01:28:19.344Z,3.50
2018-12-13T01:30:46.815Z,3.50
2018-12-13T01:33:14.314Z,3.50
2018-12-13T01:35:41.806Z,3.50
2018-12-13T01:38:09.244Z,3.40
2018-12-13T01:40:36.717Z,3.50
2018-12-13T01:43:04.188Z,3.40
2018-12-13T01:45:31.653Z,3.40
2018-12-13T01:47:59.104Z,3.40
2018-12-13T01:50:26.576Z,3.30
2018-12-13T01:52:54.027Z,3.30
2018-12-13T01:55:21.492Z,3.30
2018-12-13T01:57:48.947Z,3.30
2018-12-13T02:00:16.408Z,3.30
2018-12-13T02:02:43.848Z,3.20
2018-12-13T02:05:11.315Z,3.20
2018-12-13T02:07:38.753Z,3.20
2018-12-13T02:10:06.243Z,3.20
2018-12-13T02:12:33.676Z,3.20
2018-12-13T02:15:01.180Z,3.20
2018-12-13T02:17:30.061Z,3.20
2018-12-13T02:19:57.512Z,3.20
2018-12-13T02:22:24.992Z,3.20
2018-12-13T02:24:52.460Z,3.20
2018-12-13T02:27:19.976Z,3.20
2018-12-13T02:29:47.435Z,3.20
2018-12-13T02:32:14.899Z,3.20
2018-12-13T02:34:42.346Z,3.20
2018-12-13T02:37:09.809Z,3.10
2018-12-13T02:39:37.270Z,3.10
2018-12-13T02:42:04.751Z,3.10
2018-12-13T02:44:32.207Z,3.10
2018-12-13T02:46:59.688Z,3.10
2018-12-13T02:49:27.140Z,3.10
2018-12-13T02:51:54.664Z,3.00
2018-12-13T02:54:22.112Z,3.00
2018-12-13T02:56:49.576Z,3.00
2018-12-13T02:59:17.030Z,3.00
2018-12-13T03:01:44.573Z,3.00
2018-12-13T03:04:12.291Z,3.10
2018-12-13T03:06:39.747Z,3.00
2018-12-13T03:09:07.410Z,3.10
2018-12-13T03:11:34.972Z,3.10
2018-12-13T03:14:02.462Z,3.10
2018-12-13T03:16:29.902Z,3.10
2018-12-13T03:18:57.375Z,3.10
2018-12-13T03:21:24.846Z,3.10
2018-12-13T03:23:52.416Z,3.10
2018-12-13T03:26:19.872Z,3.10
2018-12-13T03:28:47.338Z,3.10
2018-12-13T03:31:14.847Z,3.00
2018-12-13T03:33:42.306Z,3.00
2018-12-13T03:36:09.817Z,3.00
2018-12-13T03:38:37.273Z,3.00
2018-12-13T03:41:04.758Z,3.00
2018-12-13T03:43:32.319Z,2.90
2018-12-13T03:45:59.762Z,2.90
2018-12-13T03:48:27.222Z,2.90
2018-12-13T03:50:54.721Z,2.90
2018-12-13T03:53:22.314Z,2.90
2018-12-13T03:55:49.761Z,2.90
2018-12-13T03:58:17.226Z,2.90
2018-12-13T04:00:44.708Z,2.90
2018-12-13T04:03:12.164Z,2.90
2018-12-13T04:05:39.628Z,2.90
2018-12-13T04:08:07.115Z,2.90
2018-12-13T04:10:34.571Z,2.90
2018-12-13T04:13:02.039Z,2.90
2018-12-13T04:15:29.659Z,2.90
2018-12-13T04:17:57.108Z,2.90
2018-12-13T04:20:24.570Z,2.90
2018-12-13T04:22:52.206Z,2.90
2018-12-13T04:25:19.669Z,2.80
2018-12-13T04:27:47.132Z,2.90
2018-12-13T04:30:14.632Z,2.80
2018-12-13T04:32:42.073Z,2.80
2018-12-13T04:35:09.564Z,2.80
2018-12-13T04:37:37.053Z,2.80
2018-12-13T04:40:04.533Z,2.70
2018-12-13T04:42:31.981Z,2.70
2018-12-13T04:44:59.523Z,2.80
2018-12-13T04:47:27.041Z,2.80
2018-12-13T04:49:54.529Z,2.70
2018-12-13T04:52:21.975Z,2.70
2018-12-13T04:54:49.471Z,2.70
2018-12-13T04:57:16.922Z,2.70
2018-12-13T04:59:44.397Z,2.60
2018-12-13T05:02:11.866Z,2.60
2018-12-13T05:04:39.351Z,2.60
2018-12-13T05:07:06.818Z,2.60
2018-12-13T05:09:34.262Z,2.60
2018-12-13T05:12:01.752Z,2.60
2018-12-13T05:14:29.214Z,2.60
2018-12-13T05:16:56.746Z,2.60
2018-12-13T05:19:24.209Z,2.50
2018-12-13T05:21:51.684Z,2.50
2018-12-13T05:24:19.152Z,2.50
2018-12-13T05:26:46.655Z,2.50
2018-12-13T05:29:14.135Z,2.50
2018-12-13T05:31:41.588Z,2.50
2018-12-13T05:34:09.064Z,2.50
2018-12-13T05:36:36.538Z,2.50
2018-12-13T05:39:06.301Z,2.40
2018-12-13T05:41:33.788Z,2.40
2018-12-13T05:44:01.300Z,2.40
2018-12-13T05:46:28.768Z,2.40
2018-12-13T05:48:56.216Z,2.30
2018-12-13T05:51:23.697Z,2.30
2018-12-13T05:53:51.177Z,2.30
2018-12-13T05:56:18.688Z,2.30
2018-12-13T05:58:46.798Z,2.30
2018-12-13T06:01:14.328Z,2.30
2018-12-13T06:03:41.823Z,2.30
2018-12-13T06:06:09.393Z,2.30
2018-12-13T06:08:36.861Z,2.20
2018-12-13T06:11:04.307Z,2.20
2018-12-13T06:13:31.772Z,2.20
2018-12-13T06:15:59.242Z,2.10
2018-12-13T06:18:26.713Z,2.10
2018-12-13T06:20:54.197Z,2.10
2018-12-13T06:23:21.687Z,2.10
2018-12-13T06:25:50.499Z,2.10
2018-12-13T06:28:18.141Z,2.10
2018-12-13T06:30:45.597Z,2.10
2018-12-13T06:33:13.065Z,2.00
2018-12-13T06:35:40.551Z,2.00
2018-12-13T06:38:08.037Z,2.00
2018-12-13T06:40:35.507Z,2.00
2018-12-13T06:43:02.979Z,2.00
2018-12-13T06:45:30.432Z,2.00
2018-12-13T06:47:57.900Z,1.90
2018-12-13T06:50:25.381Z,1.90
2018-12-13T06:52:52.866Z,1.90
2018-12-13T06:55:20.333Z,1.90
2018-12-13T06:57:47.817Z,1.80
2018-12-13T07:00:15.274Z,1.90
2018-12-13T07:02:42.756Z,1.90
2018-12-13T07:05:10.234Z,1.90
2018-12-13T07:07:37.687Z,1.80
2018-12-13T07:10:05.152Z,1.80
2018-12-13T07:12:32.614Z,1.80
2018-12-13T07:15:00.088Z,1.70
2018-12-13T07:17:27.557Z,1.70
2018-12-13T07:19:55.067Z,1.70
2018-12-13T07:22:22.552Z,1.70
2018-12-13T07:24:50.032Z,1.70
2018-12-13T07:27:17.490Z,1.70
2018-12-13T07:29:44.959Z,1.70
2018-12-13T07:32:12.405Z,1.70
2018-12-13T07:34:40.048Z,1.70
2018-12-13T07:37:07.560Z,1.70
2018-12-13T07:39:35.106Z,1.70
2018-12-13T07:42:02.552Z,1.80
2018-12-13T07:44:30.030Z,1.70
2018-12-13T07:46:57.478Z,1.70
2018-12-13T07:49:24.951Z,1.70
2018-12-13T07:51:52.405Z,1.70
2018-12-13T07:54:19.881Z,1.70
2018-12-13T07:56:47.355Z,1.70
2018-12-13T07:59:14.809Z,1.70
2018-12-13T08:01:42.334Z,1.70
2018-12-13T08:04:09.825Z,1.80
2018-12-13T08:06:37.474Z,1.80
2018-12-13T08:09:09.221Z,1.80
2018-12-13T08:11:36.689Z,1.80
2018-12-13T08:14:04.132Z,1.80
2018-12-13T08:16:31.623Z,1.80
2018-12-13T08:18:59.079Z,1.80
2018-12-13T08:21:26.546Z,1.90
2018-12-13T08:23:54.005Z,1.80
2018-12-13T08:26:21.489Z,1.90
2018-12-13T08:28:49.160Z,1.90
2018-12-13T08:31:16.685Z,1.90
2018-12-13T08:33:44.124Z,1.90
2018-12-13T08:36:11.595Z,1.90
2018-12-13T08:38:39.053Z,2.00
2018-12-13T08:41:06.519Z,2.00
2018-12-13T08:43:33.981Z,2.00
2018-12-13T08:46:01.798Z,2.10
2018-12-13T08:48:29.240Z,2.10
2018-12-13T08:50:56.719Z,2.10
2018-12-13T08:53:24.188Z,2.10
2018-12-13T08:55:51.682Z,2.20
2018-12-13T08:58:19.141Z,2.20
2018-12-13T09:00:46.580Z,2.20
2018-12-13T09:03:14.453Z,2.30
2018-12-13T09:05:42.008Z,2.30
2018-12-13T09:08:09.488Z,2.30
2018-12-13T09:10:36.951Z,2.40
2018-12-13T09:13:04.432Z,2.40
2018-12-13T09:15:32.008Z,2.50
2018-12-13T09:17:59.489Z,2.50
2018-12-13T09:20:26.930Z,2.50
2018-12-13T09:22:55.167Z,2.50
2018-12-13T09:25:22.620Z,2.60
2018-12-13T09:27:50.110Z,2.60
2018-12-13T09:30:17.570Z,2.60
2018-12-13T09:32:45.048Z,2.70
2018-12-13T09:35:12.493Z,2.80
2018-12-13T09:37:39.955Z,2.80
2018-12-13T09:40:07.410Z,2.80
2018-12-13T09:42:34.872Z,2.80
2018-12-13T09:45:02.333Z,2.90
2018-12-13T09:47:29.804Z,2.90
2018-12-13T09:49:57.255Z,3.00
2018-12-13T09:52:24.716Z,3.10
2018-12-13T09:54:53.178Z,3.10
2018-12-13T09:57:20.652Z,3.10
2018-12-13T09:59:48.088Z,3.10
2018-12-13T10:02:15.549Z,3.20
2018-12-13T10:04:43.003Z,3.10
2018-12-13T10:07:10.464Z,3.10
2018-12-13T10:09:37.920Z,3.00
2018-12-13T10:12:05.357Z,3.00
2018-12-13T10:14:32.829Z,3.00
2018-12-13T10:17:00.265Z,2.90
2018-12-13T10:19:27.738Z,2.90
2018-12-13T10:21:55.252Z,2.90
2018-12-13T10:24:23.568Z,2.90
2018-12-13T10:26:51.049Z,2.80
2018-12-13T10:29:18.514Z,2.80
2018-12-13T10:31:45.963Z,2.80
2018-12-13T10:34:13.451Z,2.70
2018-12-13T10:36:40.900Z,2.70
2018-12-13T10:39:08.389Z,2.70
2018-12-13T10:41:35.854Z,2.80
2018-12-13T10:44:03.330Z,2.80
2018-12-13T10:46:30.772Z,2.80
2018-12-13T10:48:58.343Z,2.80
2018-12-13T10:51:25.797Z,2.90
2018-12-13T10:53:53.260Z,2.90
2018-12-13T10:56:20.716Z,2.90
2018-12-13T10:58:48.188Z,2.90
2018-12-13T11:01:21.353Z,2.80
2018-12-13T11:03:48.837Z,2.80
2018-12-13T11:06:16.288Z,2.80
2018-12-13T11:08:43.752Z,2.90
2018-12-13T11:11:11.198Z,2.90
2018-12-13T11:13:38.692Z,2.90
2018-12-13T11:16:06.147Z,3.00
2018-12-13T11:18:33.618Z,3.10
2018-12-13T11:21:01.075Z,3.10
2018-12-13T11:23:28.834Z,3.20
2018-12-13T11:25:56.405Z,3.30
2018-12-13T11:31:31.332Z,3.40
2018-12-13T11:33:58.820Z,3.50
2018-12-13T11:36:26.312Z,3.50
2018-12-13T11:38:53.782Z,3.60
2018-12-13T11:41:21.241Z,3.70
2018-12-13T11:43:48.731Z,3.70
2018-12-13T11:46:16.214Z,3.70
2018-12-13T11:48:43.658Z,3.80
2018-12-13T11:51:11.136Z,3.80
2018-12-13T11:53:39.000Z,3.90
2018-12-13T11:56:06.475Z,3.90
2018-12-13T11:58:33.918Z,4.00
2018-12-13T12:01:01.388Z,3.90
2018-12-13T12:03:28.868Z,3.90
2018-12-13T12:05:56.458Z,3.90
2018-12-13T12:08:23.902Z,4.00
2018-12-13T12:10:51.376Z,3.90
2018-12-13T12:13:18.835Z,3.90
2018-12-13T12:15:46.309Z,3.90
2018-12-13T12:18:13.795Z,3.90
2018-12-13T12:20:41.272Z,3.90
2018-12-13T12:23:08.723Z,3.90
2018-12-13T12:25:36.202Z,4.00
2018-12-13T12:28:03.672Z,3.90
2018-12-13T12:30:31.135Z,3.90
2018-12-13T12:32:58.586Z,3.90
2018-12-13T12:35:27.328Z,3.90
2018-12-13T12:37:54.812Z,4.00
2018-12-13T12:40:22.282Z,4.00
2018-12-13T12:42:49.754Z,3.90
2018-12-13T12:45:17.211Z,3.90
2018-12-13T12:47:44.691Z,3.90
2018-12-13T12:50:12.140Z,3.90
2018-12-13T12:52:39.645Z,3.90
2018-12-13T12:55:07.092Z,3.90
2018-12-13T12:57:34.590Z,3.90
2018-12-13T13:00:02.193Z,4.00
2018-12-13T13:02:31.145Z,4.00
2018-12-13T13:04:58.596Z,4.00
2018-12-13T13:07:26.086Z,4.10
2018-12-13T13:09:53.524Z,4.10
2018-12-13T13:12:21.006Z,4.10
2018-12-13T13:14:48.466Z,4.00
2018-12-13T13:17:15.955Z,4.00
2018-12-13T13:19:43.440Z,4.00
2018-12-13T13:22:10.909Z,4.00
2018-12-13T13:24:38.364Z,3.90
2018-12-13T13:27:05.858Z,4.00
2018-12-13T13:29:33.297Z,3.90
2018-12-13T13:32:00.767Z,3.90
2018-12-13T13:34:28.208Z,3.90
2018-12-13T13:36:55.674Z,3.90
2018-12-13T13:39:23.143Z,4.00
2018-12-13T13:41:50.591Z,4.00
2018-12-13T13:44:18.623Z,4.10
2018-12-13T13:46:46.069Z,4.00
2018-12-13T13:49:13.546Z,4.00
2018-12-13T13:51:40.992Z,4.00
2018-12-13T13:54:08.504Z,4.00
2018-12-13T13:56:36.035Z,3.90
2018-12-13T13:59:03.548Z,3.90
2018-12-13T14:01:30.994Z,3.90
2018-12-13T14:03:58.552Z,3.80
2018-12-13T14:06:26.002Z,3.80
2018-12-13T14:08:53.477Z,3.80
2018-12-13T14:11:20.915Z,3.80
2018-12-13T14:13:48.472Z,3.70
2018-12-13T14:16:16.582Z,3.70
2018-12-13T14:18:44.056Z,3.70
2018-12-13T14:21:11.512Z,3.60
2018-12-13T14:23:38.981Z,3.50
2018-12-13T14:26:07.333Z,3.50
2018-12-13T14:28:35.014Z,3.40
2018-12-13T14:31:02.464Z,3.50
2018-12-13T14:33:29.930Z,3.40
2018-12-13T14:35:57.411Z,3.40
2018-12-13T14:38:24.864Z,3.40
2018-12-13T14:40:52.365Z,3.40
2018-12-13T14:43:19.808Z,3.40
2018-12-13T14:45:47.268Z,3.30
2018-12-13T14:48:14.779Z,3.30
2018-12-13T14:50:42.566Z,3.40
2018-12-13T14:53:10.522Z,3.40
2018-12-13T14:55:37.996Z,3.40
2018-12-13T14:58:05.450Z,3.40
2018-12-13T15:00:32.927Z,3.30
2018-12-13T15:03:00.364Z,3.30
2018-12-13T15:05:27.993Z,3.40
2018-12-13T15:07:55.598Z,3.30
2018-12-13T15:10:23.510Z,3.30
2018-12-13T15:12:50.963Z,3.30
2018-12-13T15:15:18.480Z,3.30
2018-12-13T15:17:45.944Z,3.20
2018-12-13T15:20:13.419Z,3.20
2018-12-13T15:22:40.872Z,3.20
2018-12-13T15:25:08.348Z,3.30
2018-12-13T15:27:35.801Z,3.20
2018-12-13T15:30:03.767Z,3.20
2018-12-13T15:32:31.214Z,3.20
2018-12-13T15:34:58.691Z,3.20
2018-12-13T15:37:26.146Z,3.20
2018-12-13T15:39:57.274Z,3.10
2018-12-13T15:42:23.082Z,3.10
2018-12-13T15:44:50.527Z,3.10
2018-12-13T15:47:18.004Z,3.10
2018-12-13T15:49:45.711Z,3.10
2018-12-13T15:52:13.185Z,3.10
2018-12-13T15:54:40.631Z,3.00
2018-12-13T15:57:08.117Z,3.00
2018-12-13T15:59:35.577Z,3.00
2018-12-13T16:02:03.042Z,2.90
2018-12-13T16:04:30.490Z,3.00
2018-12-13T16:06:57.956Z,2.90
2018-12-13T16:09:25.396Z,2.90
2018-12-13T16:11:52.884Z,2.90
2018-12-13T16:14:20.325Z,2.90
2018-12-13T16:16:48.381Z,2.90
2018-12-13T16:19:15.828Z,2.90
2018-12-13T16:21:43.289Z,2.90
2018-12-13T16:24:10.751Z,2.80
2018-12-13T16:26:38.205Z,2.90
2018-12-13T16:29:05.668Z,2.90
2018-12-13T16:31:33.269Z,2.90
2018-12-13T16:34:00.735Z,2.90
2018-12-13T16:36:28.245Z,2.90
2018-12-13T16:38:55.718Z,2.90
2018-12-13T16:41:23.184Z,2.90
2018-12-13T16:43:50.641Z,2.90
2018-12-13T16:46:18.121Z,2.90
2018-12-13T16:48:46.200Z,2.90
2018-12-13T16:51:13.670Z,2.90
2018-12-13T16:53:41.149Z,2.80
2018-12-13T16:56:08.604Z,2.80
2018-12-13T16:58:36.064Z,2.80
2018-12-13T17:01:03.516Z,2.80
2018-12-13T17:03:37.461Z,2.80
2018-12-13T17:06:05.060Z,2.80
2018-12-13T17:08:32.532Z,2.80
2018-12-13T17:11:00.044Z,2.80
2018-12-13T17:13:27.577Z,2.80
2018-12-13T17:15:55.024Z,2.80
2018-12-13T17:18:22.599Z,2.80
2018-12-13T17:20:50.035Z,2.80
2018-12-13T17:23:17.615Z,2.80
2018-12-13T17:25:45.061Z,2.80
2018-12-13T17:28:12.530Z,2.80
2018-12-13T17:30:40.090Z,2.80
2018-12-13T17:33:07.559Z,2.80
2018-12-13T17:35:35.066Z,2.80
2018-12-13T17:38:02.542Z,2.80
2018-12-13T17:40:29.999Z,2.80
2018-12-13T17:42:57.457Z,2.80
2018-12-13T17:45:24.915Z,2.80
2018-12-13T17:47:52.367Z,2.80
2018-12-13T17:50:19.885Z,2.80
2018-12-13T17:52:47.347Z,2.80
2018-12-13T17:55:14.857Z,2.80
2018-12-13T17:57:42.309Z,2.80
2018-12-13T18:00:12.538Z,2.80
2018-12-13T18:02:39.997Z,2.80
2018-12-13T18:05:07.447Z,2.80
2018-12-13T18:07:35.622Z,2.90
2018-12-13T18:10:05.729Z,2.90
2018-12-13T18:12:33.312Z,2.90
2018-12-13T18:15:00.778Z,2.90
2018-12-13T18:17:28.251Z,2.80
2018-12-13T18:19:55.730Z,2.80
2018-12-13T18:22:23.203Z,2.80
2018-12-13T18:24:50.682Z,2.80
2018-12-13T18:27:18.150Z,2.80
2018-12-13T18:29:45.653Z,2.80
2018-12-13T18:32:13.123Z,2.80
2018-12-13T18:34:40.587Z,2.80
2018-12-13T18:37:08.076Z,2.80
2018-12-13T18:39:35.564Z,2.80
2018-12-13T18:42:03.022Z,2.80
2018-12-13T18:44:30.539Z,2.80
2018-12-13T18:46:58.006Z,2.80
2018-12-13T18:49:25.464Z,2.80
2018-12-13T18:51:52.976Z,2.90
2018-12-13T18:54:20.481Z,2.80
2018-12-13T18:56:47.990Z,2.80
2018-12-13T18:59:15.445Z,2.80
2018-12-13T19:01:42.917Z,2.80
2018-12-13T19:04:10.404Z,2.80
2018-12-13T19:06:37.883Z,2.80
2018-12-13T19:09:05.614Z,2.80
2018-12-13T19:11:33.077Z,2.80
2018-12-13T19:14:00.600Z,2.80
2018-12-13T19:16:28.086Z,2.80
2018-12-13T19:18:55.542Z,2.80
2018-12-13T19:21:23.009Z,2.80
2018-12-13T19:23:50.493Z,2.80
2018-12-13T19:26:17.972Z,2.80
2018-12-13T19:28:45.426Z,2.80
2018-12-13T19:31:12.958Z,2.80
2018-12-13T19:33:40.425Z,2.80
2018-12-13T19:36:07.872Z,2.80
2018-12-13T19:38:35.363Z,2.80
2018-12-13T19:41:02.810Z,2.80
2018-12-13T19:43:30.284Z,2.80
2018-12-13T19:45:57.743Z,2.80
2018-12-13T19:48:25.293Z,2.80
2018-12-13T19:50:53.876Z,2.80
2018-12-13T19:53:21.591Z,2.80
2018-12-13T19:55:49.069Z,2.80
2018-12-13T19:58:16.581Z,2.80
2018-12-13T20:00:44.175Z,2.80
2018-12-13T20:03:11.661Z,2.80
2018-12-13T20:05:39.119Z,2.80
2018-12-13T20:08:06.575Z,2.80
2018-12-13T20:10:34.032Z,2.80
2018-12-13T20:13:01.539Z,2.70
2018-12-13T20:15:29.112Z,2.70
2018-12-13T20:17:56.615Z,2.70
2018-12-13T20:20:24.075Z,2.80
2018-12-13T20:22:51.599Z,2.70
2018-12-13T20:25:19.087Z,2.80
2018-12-13T20:27:46.595Z,2.80
2018-12-13T20:30:14.104Z,2.80
2018-12-13T20:32:41.604Z,2.80
2018-12-13T20:35:09.347Z,2.80
2018-12-13T20:37:36.800Z,2.70
2018-12-13T20:40:04.328Z,2.70
2018-12-13T20:42:31.816Z,2.70
2018-12-13T20:44:59.418Z,2.70
2018-12-13T20:47:26.872Z,2.70
2018-12-13T20:49:54.392Z,2.70
2018-12-13T20:52:21.878Z,2.70
2018-12-13T20:54:49.350Z,2.70
2018-12-13T20:57:16.867Z,2.70
2018-12-13T20:59:44.348Z,2.70
2018-12-13T21:02:11.810Z,2.70
2018-12-13T21:04:39.299Z,2.60
2018-12-13T21:07:12.372Z,2.60
2018-12-13T21:09:39.863Z,2.60
2018-12-13T21:12:07.316Z,2.60
2018-12-13T21:14:34.791Z,2.60
2018-12-13T21:17:02.234Z,2.60
2018-12-13T21:19:29.706Z,2.60
2018-12-13T21:21:57.145Z,2.60
2018-12-13T21:24:24.646Z,2.60
2018-12-13T21:26:52.100Z,2.60
2018-12-13T21:29:19.552Z,2.60
2018-12-13T21:31:47.033Z,2.60
2018-12-13T21:34:14.475Z,2.60
2018-12-13T21:36:41.959Z,2.60
2018-12-13T21:39:09.419Z,2.60
2018-12-13T21:41:36.888Z,2.60
2018-12-13T21:44:04.336Z,2.50
2018-12-13T21:46:31.803Z,2.50
2018-12-13T21:48:59.274Z,2.50
2018-12-13T21:51:26.722Z,2.50
2018-12-13T21:53:54.180Z,2.50
2018-12-13T21:56:21.660Z,2.50
2018-12-13T21:58:49.186Z,2.50
2018-12-13T22:01:16.646Z,2.50
2018-12-13T22:03:44.133Z,2.50
2018-12-13T22:06:11.625Z,2.50
2018-12-13T22:08:39.074Z,2.40
2018-12-13T22:11:06.553Z,2.40
2018-12-13T22:13:34.046Z,2.40
2018-12-13T22:16:01.513Z,2.40
2018-12-13T22:18:28.949Z,2.40
2018-12-13T22:20:56.431Z,2.40
2018-12-13T22:23:23.891Z,2.40
2018-12-13T22:25:51.372Z,2.50
2018-12-13T22:28:18.860Z,2.50
2018-12-13T22:30:46.319Z,2.50
2018-12-13T22:33:13.803Z,2.40
2018-12-13T22:35:41.231Z,2.50
2018-12-13T22:38:08.743Z,2.40
2018-12-13T22:40:36.216Z,2.50
2018-12-13T22:43:03.707Z,2.50
2018-12-13T22:45:31.252Z,2.50
2018-12-13T22:47:58.747Z,2.50
2018-12-13T22:50:26.202Z,2.50
2018-12-13T22:52:53.800Z,2.50
2018-12-13T22:55:21.278Z,2.50
2018-12-13T22:57:49.539Z,2.50
2018-12-13T23:00:17.019Z,2.50
2018-12-13T23:02:44.585Z,2.40
2018-12-13T23:05:12.145Z,2.40
2018-12-13T23:07:39.624Z,2.40
2018-12-13T23:10:07.098Z,2.50
2018-12-13T23:12:34.548Z,2.40
2018-12-13T23:15:02.006Z,2.40
2018-12-13T23:17:29.559Z,2.50
2018-12-13T23:19:57.021Z,2.40
2018-12-13T23:22:24.480Z,2.40
2018-12-13T23:24:52.000Z,2.40
2018-12-13T23:27:19.483Z,2.40
2018-12-13T23:29:46.973Z,2.40
2018-12-13T23:32:14.418Z,2.40
2018-12-13T23:34:42.089Z,2.40
2018-12-13T23:37:09.775Z,2.40
2018-12-13T23:39:37.260Z,2.40
2018-12-13T23:42:04.724Z,2.40
2018-12-13T23:44:32.198Z,2.40
2018-12-13T23:46:59.642Z,2.40
2018-12-13T23:49:27.217Z,2.40
2018-12-13T23:51:54.686Z,2.40
2018-12-13T23:54:22.313Z,2.40
2018-12-13T23:56:49.774Z,2.40
2018-12-13T23:59:17.258Z,2.40
